Time;durP1;ratioP1;P1;durP2;ratioP2;P2;SDS_P1;SDS_P2;PMS_P1;PMS_P2;Temp;Humidity;BMP_temperature;BMP_pressure;BME280_temperature;BME280_humidity;BME280_pressure;Samples;Min_cycle;Max_cycle;Signal;HPM_P1;HPM_P2
2023/10/26 00:02:00;;;;;;;23.27;15.57;;;;;;;;;;5014067;28;20292;-63
2023/10/26 00:04:25;;;;;;;21.98;14.30;;;;;;;;;;5013303;28;20293;-63
2023/10/26 00:06:50;;;;;;;23.80;14.30;;;;;;;;;;5003766;28;20028;-63
2023/10/26 00:09:15;;;;;;;24.57;14.43;;;;;;;;;;5012143;28;20431;-63
2023/10/26 00:11:41;;;;;;;24.42;15.85;;;;;;;;;;5004064;28;20931;-63
2023/10/26 00:14:06;;;;;;;23.03;14.87;;;;;;;;;;5013259;28;20109;-63
2023/10/26 00:16:31;;;;;;;23.88;15.88;;;;;;;;;;5004267;28;20376;-63
2023/10/26 00:18:56;;;;;;;23.30;14.53;;;;;;;;;;5013263;28;20080;-63
2023/10/26 00:21:22;;;;;;;21.45;15.48;;;;;;;;;;5011212;28;20301;-63
2023/10/26 00:23:47;;;;;;;24.05;15.75;;;;;;;;;;5012084;28;20380;-63
2023/10/26 00:26:12;;;;;;;26.13;16.27;;;;;;;;;;5007372;28;20461;-63
2023/10/26 00:28:39;;;;;;;23.27;14.73;;;;;;;;;;5012994;28;20022;-62
2023/10/26 00:31:05;;;;;;;24.10;16.10;;;;;;;;;;5003320;28;20261;-63
2023/10/26 00:33:30;;;;;;;20.42;14.05;;;;;;;;;;5012283;28;20087;-62
2023/10/26 00:35:55;;;;;;;21.87;14.13;;;;;;;;;;5012515;28;20022;-62
2023/10/26 00:38:20;;;;;;;23.25;14.52;;;;;;;;;;5012870;28;20276;-65
2023/10/26 00:40:46;;;;;;;23.90;14.60;;;;;;;;;;5012494;28;20121;-62
2023/10/26 00:43:21;;;;;;;22.03;13.50;;;;;;;;;;5012753;28;20105;-63
2023/10/26 00:45:47;;;;;;;21.88;14.20;;;;;;;;;;5012527;28;20376;-63
2023/10/26 00:48:12;;;;;;;22.33;14.40;;;;;;;;;;5012355;28;20141;-63
2023/10/26 00:50:38;;;;;;;19.15;13.07;;;;;;;;;;5012034;28;20032;-64
2023/10/26 00:53:03;;;;;;;18.55;12.48;;;;;;;;;;5013069;28;20014;-64
2023/10/26 00:55:28;;;;;;;19.73;13.10;;;;;;;;;;5012507;28;20022;-64
2023/10/26 00:57:54;;;;;;;27.55;14.05;;;;;;;;;;5018015;28;20053;-64
2023/10/26 01:00:19;;;;;;;20.02;13.02;;;;;;;;;;5011944;28;20416;-64
2023/10/26 01:02:44;;;;;;;21.92;14.68;;;;;;;;;;5012039;28;20036;-64
2023/10/26 01:05:09;;;;;;;20.67;13.52;;;;;;;;;;5012183;28;20022;-63
2023/10/26 01:07:36;;;;;;;20.13;14.00;;;;;;;;;;5012751;28;20056;-65
2023/10/26 01:10:01;;;;;;;21.42;14.45;;;;;;;;;;5011913;28;20280;-65
2023/10/26 01:12:27;;;;;;;26.10;14.52;;;;;;;;;;5012272;28;20095;-64
2023/10/26 01:14:52;;;;;;;23.38;15.93;;;;;;;;;;5011437;28;20469;-65
2023/10/26 01:17:18;;;;;;;25.98;15.88;;;;;;;;;;5012309;28;20049;-65
2023/10/26 01:19:45;;;;;;;26.90;15.45;;;;;;;;;;5011984;28;20443;-65
2023/10/26 01:22:10;;;;;;;24.70;16.25;;;;;;;;;;5011779;28;20033;-65
2023/10/26 01:24:36;;;;;;;25.38;17.17;;;;;;;;;;5011693;28;20921;-63
2023/10/26 01:27:02;;;;;;;28.67;17.13;;;;;;;;;;5011829;28;20022;-64
2023/10/26 01:29:27;;;;;;;26.20;16.02;;;;;;;;;;5011555;28;20028;-64
2023/10/26 01:31:52;;;;;;;23.35;17.33;;;;;;;;;;5004319;28;20113;-64
2023/10/26 01:34:18;;;;;;;29.42;16.88;;;;;;;;;;5011873;28;20028;-63
2023/10/26 01:36:43;;;;;;;25.45;17.50;;;;;;;;;;5011524;28;20018;-65
2023/10/26 01:39:08;;;;;;;25.65;16.58;;;;;;;;;;5012112;28;20054;-64
2023/10/26 01:41:34;;;;;;;29.80;18.17;;;;;;;;;;5000169;28;20062;-64
2023/10/26 01:44:02;;;;;;;25.80;17.30;;;;;;;;;;5010030;28;20340;-64
2023/10/26 01:46:27;;;;;;;28.00;17.42;;;;;;;;;;4999733;28;20317;-64
2023/10/26 01:48:53;;;;;;;26.35;16.65;;;;;;;;;;5010299;28;20030;-64
2023/10/26 01:51:18;;;;;;;24.92;17.00;;;;;;;;;;5010942;28;20083;-63
2023/10/26 01:53:44;;;;;;;26.10;16.33;;;;;;;;;;5011859;28;20738;-63
2023/10/26 01:56:09;;;;;;;24.92;17.42;;;;;;;;;;5011584;28;20388;-63
2023/10/26 01:58:34;;;;;;;27.60;18.03;;;;;;;;;;5011535;28;20018;-63
2023/10/26 02:01:00;;;;;;;24.05;16.42;;;;;;;;;;5011307;28;20261;-63
2023/10/26 02:03:25;;;;;;;24.50;16.63;;;;;;;;;;5011642;28;20471;-63
2023/10/26 02:05:50;;;;;;;26.93;15.37;;;;;;;;;;5011571;28;20025;-63
2023/10/26 02:08:15;;;;;;;24.23;17.23;;;;;;;;;;5010636;28;20277;-63
2023/10/26 02:10:41;;;;;;;27.93;17.13;;;;;;;;;;5014563;28;20295;-63
2023/10/26 02:13:06;;;;;;;27.48;18.00;;;;;;;;;;5015133;28;20272;-63
2023/10/26 02:15:32;;;;;;;28.23;16.98;;;;;;;;;;5014618;28;20135;-63
2023/10/26 02:17:57;;;;;;;26.50;18.17;;;;;;;;;;5014691;28;20034;-63
2023/10/26 02:20:22;;;;;;;27.08;18.02;;;;;;;;;;5009801;28;20292;-63
2023/10/26 02:22:47;;;;;;;27.03;18.67;;;;;;;;;;5010261;28;20049;-63
2023/10/26 02:25:13;;;;;;;24.73;17.52;;;;;;;;;;5008844;28;20300;-63
2023/10/26 02:27:38;;;;;;;31.23;18.40;;;;;;;;;;5015259;28;20021;-63
2023/10/26 02:30:03;;;;;;;25.40;19.15;;;;;;;;;;5002330;28;20101;-63
2023/10/26 02:32:29;;;;;;;25.60;18.23;;;;;;;;;;5014693;28;20069;-63
2023/10/26 02:34:54;;;;;;;31.73;19.30;;;;;;;;;;5014067;28;20080;-63
2023/10/26 02:37:19;;;;;;;25.27;18.37;;;;;;;;;;5013537;28;20045;-63
2023/10/26 02:39:45;;;;;;;28.87;19.30;;;;;;;;;;5013365;28;20364;-63
2023/10/26 02:42:10;;;;;;;32.63;20.52;;;;;;;;;;5012145;28;20392;-63
2023/10/26 02:44:36;;;;;;;29.70;20.13;;;;;;;;;;5014190;28;20053;-63
2023/10/26 02:47:01;;;;;;;30.20;19.27;;;;;;;;;;5014350;28;20272;-63
2023/10/26 02:49:26;;;;;;;32.57;20.17;;;;;;;;;;5009555;28;20018;-63
2023/10/26 02:51:51;;;;;;;31.25;19.67;;;;;;;;;;5013029;28;20272;-63
2023/10/26 02:54:17;;;;;;;36.88;22.10;;;;;;;;;;5013239;28;20498;-63
2023/10/26 02:56:42;;;;;;;28.13;19.07;;;;;;;;;;5012949;28;20033;-63
2023/10/26 02:59:07;;;;;;;33.70;22.13;;;;;;;;;;5010335;28;20288;-63
2023/10/26 03:01:33;;;;;;;40.42;21.48;;;;;;;;;;5013270;28;20292;-63
2023/10/26 03:03:59;;;;;;;36.67;21.60;;;;;;;;;;5012837;28;20469;-63
2023/10/26 03:06:25;;;;;;;28.58;19.35;;;;;;;;;;5005219;28;20372;-64
2023/10/26 03:08:50;;;;;;;32.70;20.63;;;;;;;;;;5011638;28;20040;-63
2023/10/26 03:11:15;;;;;;;36.60;19.40;;;;;;;;;;5010419;28;20353;-63
2023/10/26 03:13:40;;;;;;;33.10;19.73;;;;;;;;;;5013372;28;20018;-63
2023/10/26 03:16:06;;;;;;;36.75;22.05;;;;;;;;;;5013296;28;20045;-64
2023/10/26 03:18:31;;;;;;;33.83;20.67;;;;;;;;;;5014064;28;20022;-63
2023/10/26 03:20:57;;;;;;;34.23;19.97;;;;;;;;;;5013969;28;20022;-63
2023/10/26 03:23:23;;;;;;;34.90;20.05;;;;;;;;;;5007194;28;20523;-63
2023/10/26 03:25:48;;;;;;;30.58;19.00;;;;;;;;;;5013467;28;20026;-63
2023/10/26 03:28:14;;;;;;;32.55;18.92;;;;;;;;;;5010670;28;20026;-63
2023/10/26 03:30:39;;;;;;;32.38;20.30;;;;;;;;;;5013905;28;20435;-63
2023/10/26 03:33:04;;;;;;;32.58;19.80;;;;;;;;;;5014011;28;20033;-63
2023/10/26 03:35:32;;;;;;;30.25;19.55;;;;;;;;;;5013432;28;20026;-62
2023/10/26 03:37:57;;;;;;;30.15;18.60;;;;;;;;;;5001196;28;20033;-63
2023/10/26 03:40:23;;;;;;;35.50;19.53;;;;;;;;;;5013129;28;20396;-63
2023/10/26 03:42:48;;;;;;;32.30;20.43;;;;;;;;;;5013671;28;20642;-62
2023/10/26 03:45:13;;;;;;;32.23;19.43;;;;;;;;;;5013200;28;20766;-62
2023/10/26 03:47:40;;;;;;;34.72;20.05;;;;;;;;;;5013833;28;20778;-62
2023/10/26 03:50:06;;;;;;;34.55;20.77;;;;;;;;;;5012855;28;20021;-62
2023/10/26 03:52:31;;;;;;;35.75;19.30;;;;;;;;;;5012673;28;20030;-63
2023/10/26 03:54:56;;;;;;;29.70;19.17;;;;;;;;;;5013136;28;20392;-63
2023/10/26 03:57:22;;;;;;;32.38;19.38;;;;;;;;;;5013655;28;20076;-63
2023/10/26 03:59:47;;;;;;;35.25;20.27;;;;;;;;;;5013541;28;20436;-63
2023/10/26 04:02:12;;;;;;;35.00;19.92;;;;;;;;;;5012723;28;20026;-63
2023/10/26 04:04:38;;;;;;;35.00;21.60;;;;;;;;;;5013088;28;20494;-63
2023/10/26 04:07:03;;;;;;;31.85;18.95;;;;;;;;;;5013147;28;20044;-63
2023/10/26 04:09:29;;;;;;;31.50;20.08;;;;;;;;;;5013581;28;20101;-63
2023/10/26 04:11:54;;;;;;;34.95;19.60;;;;;;;;;;5013160;28;20509;-63
2023/10/26 04:14:19;;;;;;;33.70;19.17;;;;;;;;;;5013106;28;20017;-63
2023/10/26 04:16:47;;;;;;;31.00;18.98;;;;;;;;;;5012695;28;20359;-63
2023/10/26 04:19:13;;;;;;;33.65;18.17;;;;;;;;;;5012631;28;20018;-63
2023/10/26 04:21:38;;;;;;;29.65;17.63;;;;;;;;;;5012662;28;20060;-63
2023/10/26 04:24:03;;;;;;;29.33;17.53;;;;;;;;;;5012943;28;20456;-63
2023/10/26 04:26:29;;;;;;;29.42;18.17;;;;;;;;;;5011649;28;20802;-63
2023/10/26 04:28:54;;;;;;;24.02;16.23;;;;;;;;;;5012489;28;20018;-63
2023/10/26 04:31:20;;;;;;;28.30;16.95;;;;;;;;;;5012341;28;20049;-63
2023/10/26 04:33:45;;;;;;;29.10;17.25;;;;;;;;;;5012782;28;20169;-63
2023/10/26 04:36:11;;;;;;;23.05;15.55;;;;;;;;;;5012414;28;20471;-63
2023/10/26 04:38:36;;;;;;;23.58;14.73;;;;;;;;;;5012810;28;20036;-63
2023/10/26 04:41:01;;;;;;;28.95;15.45;;;;;;;;;;5008218;28;20023;-62
2023/10/26 04:43:26;;;;;;;27.63;15.48;;;;;;;;;;5003999;28;20065;-63
2023/10/26 04:45:52;;;;;;;31.90;16.37;;;;;;;;;;5012403;28;20021;-63
2023/10/26 04:48:17;;;;;;;25.80;15.48;;;;;;;;;;5012806;28;20285;-62
2023/10/26 04:50:42;;;;;;;26.10;16.40;;;;;;;;;;5011099;28;20468;-63
2023/10/26 04:53:08;;;;;;;23.40;13.48;;;;;;;;;;5012900;28;20112;-63
2023/10/26 04:55:34;;;;;;;26.58;13.95;;;;;;;;;;5012791;28;20482;-63
2023/10/26 04:57:59;;;;;;;28.85;16.30;;;;;;;;;;5011982;28;20523;-63
2023/10/26 05:00:25;;;;;;;25.33;14.80;;;;;;;;;;5012618;28;20433;-62
2023/10/26 05:02:51;;;;;;;23.33;15.27;;;;;;;;;;5012102;28;20392;-62
2023/10/26 05:05:16;;;;;;;25.08;13.57;;;;;;;;;;5012556;28;20030;-63
2023/10/26 05:07:42;;;;;;;30.30;15.27;;;;;;;;;;5012262;28;20380;-61
2023/10/26 05:10:07;;;;;;;28.85;16.05;;;;;;;;;;5012487;28;20364;-63
2023/10/26 05:12:33;;;;;;;35.03;17.70;;;;;;;;;;5012044;28;20106;-63
2023/10/26 05:14:58;;;;;;;31.92;16.50;;;;;;;;;;5012503;28;20095;-64
2023/10/26 05:17:23;;;;;;;27.43;15.53;;;;;;;;;;5011901;28;20017;-64
2023/10/26 05:19:48;;;;;;;31.38;15.95;;;;;;;;;;5012232;28;20305;-63
2023/10/26 05:22:13;;;;;;;26.53;15.77;;;;;;;;;;5011636;28;20022;-63
2023/10/26 05:24:39;;;;;;;28.60;15.20;;;;;;;;;;5011616;28;20307;-64
2023/10/26 05:27:04;;;;;;;26.13;14.18;;;;;;;;;;5012226;28;20029;-63
2023/10/26 05:29:29;;;;;;;26.83;15.00;;;;;;;;;;5012281;28;20034;-63
2023/10/26 05:31:55;;;;;;;27.08;14.88;;;;;;;;;;5011458;28;20026;-63
2023/10/26 05:34:20;;;;;;;27.92;15.18;;;;;;;;;;5011852;28;20026;-62
2023/10/26 05:36:46;;;;;;;27.73;14.63;;;;;;;;;;5011356;28;20025;-63
2023/10/26 05:39:11;;;;;;;26.37;14.70;;;;;;;;;;5011870;28;20050;-63
2023/10/26 05:41:36;;;;;;;28.53;15.40;;;;;;;;;;5010176;28;20300;-63
2023/10/26 05:44:01;;;;;;;28.30;15.13;;;;;;;;;;5011791;28;20273;-63
2023/10/26 05:46:26;;;;;;;27.70;15.20;;;;;;;;;;5011672;28;20272;-64
2023/10/26 05:48:52;;;;;;;26.87;13.77;;;;;;;;;;5011656;28;20273;-63
2023/10/26 05:51:17;;;;;;;31.88;16.38;;;;;;;;;;5011354;28;20347;-64
2023/10/26 05:53:42;;;;;;;30.13;14.55;;;;;;;;;;5011755;28;20105;-64
2023/10/26 05:56:08;;;;;;;27.77;13.67;;;;;;;;;;5003105;28;20041;-63
2023/10/26 05:58:34;;;;;;;26.52;14.45;;;;;;;;;;4968411;28;20384;-63
2023/10/26 06:00:59;;;;;;;24.85;15.25;;;;;;;;;;4969334;28;20025;-63
2023/10/26 06:03:25;;;;;;;31.30;16.25;;;;;;;;;;4956482;28;20026;-63
2023/10/26 06:05:50;;;;;;;27.83;15.02;;;;;;;;;;4968424;28;20088;-64
2023/10/26 06:08:16;;;;;;;26.13;15.10;;;;;;;;;;4968558;28;20076;-63
2023/10/26 06:10:41;;;;;;;25.00;14.48;;;;;;;;;;4967225;28;20868;-63
2023/10/26 06:13:09;;;;;;;26.15;14.45;;;;;;;;;;4967743;28;20021;-66
2023/10/26 06:15:35;;;;;;;25.70;14.85;;;;;;;;;;4968307;28;20022;-63
2023/10/26 06:18:00;;;;;;;24.75;13.63;;;;;;;;;;4968238;28;20928;-63
2023/10/26 06:20:27;;;;;;;27.67;14.57;;;;;;;;;;4960638;28;20022;-63
2023/10/26 06:22:53;;;;;;;24.05;13.75;;;;;;;;;;4969528;28;20145;-63
2023/10/26 06:25:18;;;;;;;18.63;12.55;;;;;;;;;;4957270;28;20882;-63
2023/10/26 06:27:46;;;;;;;23.05;14.18;;;;;;;;;;4970615;28;20025;-64
2023/10/26 06:30:12;;;;;;;21.58;14.43;;;;;;;;;;4968585;28;20084;-63
2023/10/26 06:32:37;;;;;;;23.88;14.85;;;;;;;;;;4967095;28;20942;-63
2023/10/26 06:35:03;;;;;;;28.87;14.73;;;;;;;;;;4967546;28;20779;-63
2023/10/26 06:37:28;;;;;;;30.30;16.30;;;;;;;;;;4967928;28;20260;-64
2023/10/26 06:39:54;;;;;;;25.85;15.05;;;;;;;;;;4967270;28;20033;-63
2023/10/26 06:42:19;;;;;;;25.77;16.27;;;;;;;;;;4964344;28;20864;-63
2023/10/26 06:44:44;;;;;;;24.17;13.40;;;;;;;;;;4966246;28;21189;-63
2023/10/26 06:47:09;;;;;;;26.13;14.95;;;;;;;;;;4967290;28;21246;-64
2023/10/26 06:49:35;;;;;;;26.88;13.75;;;;;;;;;;4967640;28;20029;-64
2023/10/26 06:52:01;;;;;;;27.48;13.73;;;;;;;;;;4967085;28;20036;-64
2023/10/26 06:54:26;;;;;;;23.95;13.85;;;;;;;;;;4968960;28;20030;-64
2023/10/26 06:56:52;;;;;;;27.00;15.40;;;;;;;;;;4973691;28;20763;-63
2023/10/26 06:59:17;;;;;;;24.83;12.80;;;;;;;;;;4973212;28;20021;-63
2023/10/26 07:01:42;;;;;;;24.20;12.60;;;;;;;;;;4972398;28;20040;-64
2023/10/26 07:04:07;;;;;;;29.58;13.77;;;;;;;;;;4971829;28;20277;-64
2023/10/26 07:06:33;;;;;;;28.17;13.47;;;;;;;;;;4972951;28;20780;-64
2023/10/26 07:08:58;;;;;;;28.67;13.57;;;;;;;;;;4971661;28;21085;-64
2023/10/26 07:11:23;;;;;;;23.83;13.23;;;;;;;;;;4972061;28;20079;-64
2023/10/26 07:13:48;;;;;;;25.77;14.03;;;;;;;;;;4972480;28;20990;-63
2023/10/26 07:16:14;;;;;;;27.67;14.17;;;;;;;;;;4974989;28;21135;-64
2023/10/26 07:18:39;;;;;;;27.63;14.68;;;;;;;;;;4973815;28;21038;-63
2023/10/26 07:21:05;;;;;;;29.67;14.75;;;;;;;;;;4972546;28;20117;-64
2023/10/26 07:23:32;;;;;;;29.52;15.15;;;;;;;;;;4972653;28;20032;-65
2023/10/26 07:25:57;;;;;;;29.23;14.68;;;;;;;;;;4975044;28;20036;-64
2023/10/26 07:28:22;;;;;;;30.75;16.25;;;;;;;;;;4973186;28;20021;-64
2023/10/26 07:30:51;;;;;;;26.73;14.35;;;;;;;;;;4972830;28;20022;-64
2023/10/26 07:33:18;;;;;;;29.13;15.50;;;;;;;;;;4973261;28;20025;-64
2023/10/26 07:35:47;;;;;;;30.88;15.45;;;;;;;;;;4974698;28;20042;-64
2023/10/26 07:38:13;;;;;;;29.10;15.13;;;;;;;;;;4971670;28;20030;-64
2023/10/26 07:40:47;;;;;;;31.25;15.23;;;;;;;;;;4973404;28;20906;-64
2023/10/26 07:43:12;;;;;;;;;;;;;;;;;;4972713;28;20264;-64
2023/10/26 07:45:38;;;;;;;25.48;13.98;;;;;;;;;;4973050;28;19912;-65
2023/10/26 07:48:03;;;;;;;26.25;14.48;;;;;;;;;;4967318;28;20947;-64
2023/10/26 07:50:28;;;;;;;32.75;16.00;;;;;;;;;;4975863;28;20040;-64
2023/10/26 07:52:54;;;;;;;36.15;17.75;;;;;;;;;;4971972;28;20018;-64
2023/10/26 07:55:19;;;;;;;29.33;17.15;;;;;;;;;;4964041;28;20025;-64
2023/10/26 07:57:45;;;;;;;26.20;16.00;;;;;;;;;;4968402;28;20126;-64
2023/10/26 08:00:11;;;;;;;37.00;17.95;;;;;;;;;;4969255;28;20037;-64
2023/10/26 08:02:36;;;;;;;36.45;17.40;;;;;;;;;;4970159;28;20030;-64
2023/10/26 08:05:02;;;;;;;39.35;18.73;;;;;;;;;;4970585;28;20026;-64
2023/10/26 08:07:27;;;;;;;35.55;17.58;;;;;;;;;;4969018;28;20875;-64
2023/10/26 08:09:52;;;;;;;31.20;17.48;;;;;;;;;;4970850;28;20053;-63
2023/10/26 08:12:18;;;;;;;35.60;19.67;;;;;;;;;;4964674;28;20799;-64
2023/10/26 08:14:44;;;;;;;31.23;16.88;;;;;;;;;;4974284;28;20088;-63
2023/10/26 08:17:09;;;;;;;31.83;17.55;;;;;;;;;;4970007;28;20136;-63
2023/10/26 08:19:35;;;;;;;30.27;17.92;;;;;;;;;;4970524;28;20034;-63
2023/10/26 08:22:00;;;;;;;33.20;18.50;;;;;;;;;;4969263;28;20065;-63
2023/10/26 08:24:25;;;;;;;32.63;18.90;;;;;;;;;;4970055;28;20088;-63
2023/10/26 08:26:51;;;;;;;36.22;19.60;;;;;;;;;;4969807;28;20027;-63
2023/10/26 08:29:16;;;;;;;33.95;19.33;;;;;;;;;;4969583;28;20129;-64
2023/10/26 08:31:42;;;;;;;34.47;19.13;;;;;;;;;;4971427;28;20025;-65
2023/10/26 08:34:07;;;;;;;33.00;20.00;;;;;;;;;;4971989;28;20815;-63
2023/10/26 08:36:32;;;;;;;33.70;17.77;;;;;;;;;;4969180;28;20037;-63
2023/10/26 08:38:58;;;;;;;33.03;20.33;;;;;;;;;;4969432;28;20872;-63
2023/10/26 08:41:23;;;;;;;36.88;20.27;;;;;;;;;;4971472;28;20049;-64
2023/10/26 08:43:48;;;;;;;38.95;20.88;;;;;;;;;;4976994;28;20037;-68
2023/10/26 08:46:15;;;;;;;36.65;22.33;;;;;;;;;;4970117;28;20029;-64
2023/10/26 08:48:41;;;;;;;40.63;22.73;;;;;;;;;;4969081;28;20021;-64
2023/10/26 08:51:06;;;;;;;40.55;23.58;;;;;;;;;;4964860;28;20038;-64
2023/10/26 08:53:34;;;;;;;36.90;20.88;;;;;;;;;;4969510;28;21042;-64
2023/10/26 08:55:59;;;;;;;37.95;20.48;;;;;;;;;;4966101;28;20079;-64
2023/10/26 08:58:25;;;;;;;35.85;20.55;;;;;;;;;;4967565;28;20034;-64
2023/10/26 09:00:51;;;;;;;30.17;19.55;;;;;;;;;;4964430;28;20026;-64
2023/10/26 09:03:16;;;;;;;38.53;19.85;;;;;;;;;;4968919;28;20036;-64
2023/10/26 09:05:54;;;;;;;34.53;19.35;;;;;;;;;;4969339;28;20085;-64
2023/10/26 09:08:22;;;;;;;35.70;18.42;;;;;;;;;;4968585;28;20124;-63
2023/10/26 09:10:47;;;;;;;33.05;18.67;;;;;;;;;;4966351;28;20041;-64
2023/10/26 09:13:21;;;;;;;34.65;18.67;;;;;;;;;;4968118;28;20136;-63
2023/10/26 09:15:47;;;;;;;36.05;17.42;;;;;;;;;;4967812;28;20044;-64
2023/10/26 09:18:15;;;;;;;26.92;16.55;;;;;;;;;;4968442;28;20132;-64
2023/10/26 09:20:40;;;;;;;33.45;17.55;;;;;;;;;;4968274;28;20026;-64
2023/10/26 09:23:05;;;;;;;31.58;16.85;;;;;;;;;;4968053;28;20185;-64
2023/10/26 09:25:31;;;;;;;26.13;15.20;;;;;;;;;;4971049;28;20030;-64
2023/10/26 09:28:02;;;;;;;28.33;15.05;;;;;;;;;;4969559;28;20826;-64
2023/10/26 09:30:28;;;;;;;28.90;16.70;;;;;;;;;;4968022;28;20863;-64
2023/10/26 09:32:56;;;;;;;24.40;13.90;;;;;;;;;;4968849;28;20066;-64
2023/10/26 09:35:25;;;;;;;26.45;15.75;;;;;;;;;;4963356;28;20084;-64
2023/10/26 09:37:50;;;;;;;27.92;14.75;;;;;;;;;;4967914;28;20909;-64
2023/10/26 09:40:16;;;;;;;28.77;15.48;;;;;;;;;;4966799;28;20025;-64
2023/10/26 09:42:42;;;;;;;24.05;14.55;;;;;;;;;;4961219;28;20093;-64
2023/10/26 09:45:07;;;;;;;30.27;16.35;;;;;;;;;;4962112;28;20842;-64
2023/10/26 09:47:33;;;;;;;28.35;15.90;;;;;;;;;;4968500;28;20085;-64
2023/10/26 09:49:58;;;;;;;26.92;15.27;;;;;;;;;;4967643;28;20137;-64
2023/10/26 09:52:23;;;;;;;26.95;15.02;;;;;;;;;;4969296;28;20037;-63
2023/10/26 09:54:49;;;;;;;28.37;16.13;;;;;;;;;;4969404;28;20828;-64
2023/10/26 09:57:21;;;;;;;25.63;15.07;;;;;;;;;;4968044;28;21366;-64
2023/10/26 09:59:51;;;;;;;27.15;15.23;;;;;;;;;;4966658;28;20994;-64
2023/10/26 10:02:17;;;;;;;30.50;16.73;;;;;;;;;;4967937;28;21065;-64
2023/10/26 10:04:42;;;;;;;31.42;17.02;;;;;;;;;;4967978;28;20091;-64
2023/10/26 10:07:07;;;;;;;34.53;18.92;;;;;;;;;;4967738;28;20895;-69
2023/10/26 10:09:53;;;;;;;28.20;15.80;;;;;;;;;;4956529;28;20926;-64
2023/10/26 10:12:18;;;;;;;29.48;16.52;;;;;;;;;;4963915;28;20034;-66
2023/10/26 10:14:54;;;;;;;28.43;17.07;;;;;;;;;;4960568;28;20040;-64
2023/10/26 10:17:39;;;;;;;33.15;17.35;;;;;;;;;;4962796;28;20272;-64
2023/10/26 10:20:14;;;;;;;27.10;15.88;;;;;;;;;;4966044;28;20034;-64
2023/10/26 10:22:40;;;;;;;30.40;16.70;;;;;;;;;;4965048;28;20038;-65
2023/10/26 10:25:10;;;;;;;26.30;16.35;;;;;;;;;;4967949;28;20910;-64
2023/10/26 10:27:35;;;;;;;22.80;14.18;;;;;;;;;;4967160;28;20025;-64
2023/10/26 10:30:08;;;;;;;22.98;14.55;;;;;;;;;;4968191;28;20025;-64
2023/10/26 10:32:48;;;;;;;27.13;15.18;;;;;;;;;;4970435;28;21016;-64
2023/10/26 10:35:32;;;;;;;18.23;12.27;;;;;;;;;;4969898;28;20945;-64
2023/10/26 10:38:13;;;;;;;21.98;13.15;;;;;;;;;;4961484;28;20143;-65
2023/10/26 10:40:39;;;;;;;18.20;11.93;;;;;;;;;;4981334;28;20079;-64
2023/10/26 10:43:05;;;;;;;22.45;12.25;;;;;;;;;;4968698;28;20036;-64
2023/10/26 10:45:30;;;;;;;23.90;13.30;;;;;;;;;;4971613;28;20040;-64
2023/10/26 10:47:55;;;;;;;25.20;14.18;;;;;;;;;;4971691;28;20048;-64
2023/10/26 10:50:22;;;;;;;19.77;11.80;;;;;;;;;;4971918;28;20025;-64
2023/10/26 10:52:51;;;;;;;19.17;12.00;;;;;;;;;;4969184;28;20030;-64
2023/10/26 10:55:35;;;;;;;17.65;12.23;;;;;;;;;;4971716;28;20022;-65
2023/10/26 10:58:01;;;;;;;18.42;11.27;;;;;;;;;;4971514;28;20033;-65
2023/10/26 11:00:27;;;;;;;15.23;10.32;;;;;;;;;;4971714;28;20030;-65
2023/10/26 11:02:58;;;;;;;17.48;11.07;;;;;;;;;;4974036;28;20071;-66
2023/10/26 11:05:36;;;;;;;18.13;11.30;;;;;;;;;;4971252;28;20022;-66
2023/10/26 11:08:01;;;;;;;19.17;12.63;;;;;;;;;;4966768;28;20080;-65
2023/10/26 11:10:27;;;;;;;18.20;11.50;;;;;;;;;;4970694;28;20877;-65
2023/10/26 11:12:52;;;;;;;20.57;11.50;;;;;;;;;;4971757;28;20837;-65
2023/10/26 11:15:18;;;;;;;16.83;11.95;;;;;;;;;;4971556;28;21250;-65
2023/10/26 11:17:43;;;;;;;17.50;11.77;;;;;;;;;;4970617;28;20022;-65
2023/10/26 11:20:27;;;;;;;19.83;13.27;;;;;;;;;;4968095;28;20563;-65
2023/10/26 11:22:55;;;;;;;18.38;12.18;;;;;;;;;;4970713;28;20034;-65
2023/10/26 11:25:27;;;;;;;18.63;11.77;;;;;;;;;;4973184;28;20026;-65
2023/10/26 11:27:52;;;;;;;21.15;12.85;;;;;;;;;;4969255;28;20368;-66
2023/10/26 11:30:17;;;;;;;18.40;12.10;;;;;;;;;;4957870;28;20080;-64
2023/10/26 11:32:43;;;;;;;21.52;13.45;;;;;;;;;;4960752;28;21182;-64
2023/10/26 11:35:16;;;;;;;21.27;13.30;;;;;;;;;;4970470;28;20018;-64
2023/10/26 11:37:42;;;;;;;19.08;12.40;;;;;;;;;;4971211;28;20056;-64
2023/10/26 11:40:08;;;;;;;19.58;11.57;;;;;;;;;;4961647;28;20035;-65
2023/10/26 11:42:47;;;;;;;18.10;11.95;;;;;;;;;;4970183;28;20038;-64
2023/10/26 11:45:15;;;;;;;18.67;11.80;;;;;;;;;;4970729;28;20022;-64
2023/10/26 11:48:00;;;;;;;18.30;11.45;;;;;;;;;;4968134;28;20126;-65
2023/10/26 11:50:32;;;;;;;16.20;11.48;;;;;;;;;;4984713;28;20034;-65
2023/10/26 11:52:59;;;;;;;17.63;10.65;;;;;;;;;;4961183;28;20028;-65
2023/10/26 11:55:24;;;;;;;17.75;11.48;;;;;;;;;;4971006;28;20997;-65
2023/10/26 11:57:51;;;;;;;14.75;9.55;;;;;;;;;;4964447;28;20030;-65
2023/10/26 12:00:17;;;;;;;13.70;9.40;;;;;;;;;;4960643;28;20030;-65
2023/10/26 12:02:43;;;;;;;15.02;10.38;;;;;;;;;;4956356;28;20033;-65
2023/10/26 12:05:11;;;;;;;12.45;8.77;;;;;;;;;;4967699;28;20883;-64
2023/10/26 12:07:36;;;;;;;15.27;10.07;;;;;;;;;;4967876;28;20116;-64
2023/10/26 12:10:03;;;;;;;15.90;9.90;;;;;;;;;;4971046;28;20830;-64
2023/10/26 12:12:28;;;;;;;12.05;8.63;;;;;;;;;;4969073;28;20260;-64
2023/10/26 12:14:53;;;;;;;16.97;10.30;;;;;;;;;;4963733;28;20964;-64
2023/10/26 12:17:18;;;;;;;15.70;10.00;;;;;;;;;;4971490;28;20474;-64
2023/10/26 12:19:43;;;;;;;14.63;9.40;;;;;;;;;;4968323;28;20282;-64
2023/10/26 12:22:09;;;;;;;12.88;8.90;;;;;;;;;;4957784;28;20307;-64
2023/10/26 12:24:35;;;;;;;13.23;9.27;;;;;;;;;;4970380;28;20079;-64
2023/10/26 12:27:01;;;;;;;14.18;9.82;;;;;;;;;;4967461;28;20081;-65
2023/10/26 12:29:26;;;;;;;15.20;8.50;;;;;;;;;;4967349;28;20022;-64
2023/10/26 12:31:51;;;;;;;10.73;7.03;;;;;;;;;;4969654;28;20025;-64
2023/10/26 12:34:19;;;;;;;8.05;5.40;;;;;;;;;;4969435;28;20316;-64
2023/10/26 12:36:44;;;;;;;9.55;6.18;;;;;;;;;;4965895;28;20188;-64
2023/10/26 12:39:09;;;;;;;9.85;5.35;;;;;;;;;;4969448;28;20901;-65
2023/10/26 12:41:34;;;;;;;7.67;4.40;;;;;;;;;;4962112;28;20054;-65
2023/10/26 12:44:00;;;;;;;6.93;4.53;;;;;;;;;;4970677;28;20308;-64
2023/10/26 12:46:25;;;;;;;6.05;3.95;;;;;;;;;;4968374;28;20291;-64
2023/10/26 12:48:50;;;;;;;5.10;3.65;;;;;;;;;;4968619;28;20930;-65
2023/10/26 12:51:16;;;;;;;5.38;3.85;;;;;;;;;;4965535;28;20232;-64
2023/10/26 12:53:41;;;;;;;5.10;3.27;;;;;;;;;;4970544;28;20056;-68
2023/10/26 12:56:09;;;;;;;7.07;3.53;;;;;;;;;;4968543;28;20282;-65
2023/10/26 12:58:35;;;;;;;8.43;3.50;;;;;;;;;;4969030;28;20923;-64
2023/10/26 13:01:00;;;;;;;4.57;2.75;;;;;;;;;;4969810;28;20045;-64
2023/10/26 13:03:25;;;;;;;3.75;2.45;;;;;;;;;;4959713;28;20031;-66
2023/10/26 13:05:51;;;;;;;6.40;2.72;;;;;;;;;;4968341;28;20453;-64
2023/10/26 13:08:17;;;;;;;3.85;2.53;;;;;;;;;;4966826;28;20029;-64
2023/10/26 13:10:43;;;;;;;4.63;2.80;;;;;;;;;;4970353;28;20029;-63
2023/10/26 13:13:09;;;;;;;6.38;3.40;;;;;;;;;;4962413;28;20945;-63
2023/10/26 13:15:35;;;;;;;4.78;2.65;;;;;;;;;;4969949;28;20029;-63
2023/10/26 13:18:01;;;;;;;5.63;3.00;;;;;;;;;;4969752;28;20025;-63
2023/10/26 13:20:29;;;;;;;5.43;2.85;;;;;;;;;;4971118;28;20052;-63
2023/10/26 13:22:55;;;;;;;4.63;3.40;;;;;;;;;;4968426;28;20037;-64
2023/10/26 13:25:22;;;;;;;5.68;3.10;;;;;;;;;;4970141;28;20944;-64
2023/10/26 13:27:48;;;;;;;6.28;2.85;;;;;;;;;;4972858;28;20036;-64
2023/10/26 13:30:14;;;;;;;7.90;3.38;;;;;;;;;;4972684;28;20145;-62
2023/10/26 13:32:41;;;;;;;4.68;3.20;;;;;;;;;;4969891;28;20024;-64
2023/10/26 13:35:07;;;;;;;6.03;3.58;;;;;;;;;;4966848;28;20079;-63
2023/10/26 13:37:32;;;;;;;7.00;3.95;;;;;;;;;;4968069;28;20095;-64
2023/10/26 13:39:57;;;;;;;5.97;4.10;;;;;;;;;;4969493;28;20030;-64
2023/10/26 13:42:22;;;;;;;5.72;3.70;;;;;;;;;;4968219;28;20354;-64
2023/10/26 13:44:48;;;;;;;6.90;4.13;;;;;;;;;;4969459;28;20937;-64
2023/10/26 13:47:13;;;;;;;7.22;4.47;;;;;;;;;;4968194;28;20033;-63
2023/10/26 13:49:38;;;;;;;7.18;4.53;;;;;;;;;;4958885;28;20018;-63
2023/10/26 13:52:04;;;;;;;8.82;4.43;;;;;;;;;;4970429;28;20028;-63
2023/10/26 13:54:30;;;;;;;6.18;4.10;;;;;;;;;;4966638;28;20026;-63
2023/10/26 13:56:55;;;;;;;6.43;4.25;;;;;;;;;;4960820;28;20030;-62
2023/10/26 13:59:20;;;;;;;8.52;4.40;;;;;;;;;;4969817;28;20053;-64
2023/10/26 14:01:45;;;;;;;6.88;4.45;;;;;;;;;;4969786;28;20093;-63
2023/10/26 14:04:11;;;;;;;7.80;5.00;;;;;;;;;;4969837;28;20090;-62
2023/10/26 14:06:36;;;;;;;8.55;5.03;;;;;;;;;;4969365;28;20273;-61
2023/10/26 14:09:03;;;;;;;5.88;3.85;;;;;;;;;;4972355;28;20018;-62
2023/10/26 14:11:29;;;;;;;9.13;4.55;;;;;;;;;;4969371;28;20018;-63
2023/10/26 14:13:55;;;;;;;7.55;4.78;;;;;;;;;;4973836;28;20022;-63
2023/10/26 14:16:22;;;;;;;8.13;4.95;;;;;;;;;;4971941;28;20914;-63